Las Cruces International Airport
KLRU : now visible

Airfield :











YOU CAN JOIN US ON...

 
LOGIN :

Register | Disclaimer

   EN    FR    IT 

 









Legend :    VFR   Marginal VFR   IFR   Intensive IFR   Very Intensive IFR
Visi :
Ceiling :
>= 8 km
>= 3000ft
5 to 8 km
1000 to 3000 ft
1500m to 5 km
500 to 1000 ft
800 to 1500m
200 to 500 ft
< 800m
< 200 ft
Symbols :   Thunderstorms  Fog  Heavy snow  Heavy precipitations  Wind > 20 kt







- Airport Elevation : 4456 ft
- IATA code : LRU


KLRU - Las Cruces International

CURRENT METAR :
  • 210355Z AUTO 25013KT 10SM CLR 22/M04 A2993 RMK AO2 T02241044

EXPIRED METARs :
  • 210335Z AUTO 26011KT 10SM CLR 23/M04 A2993 RMK AO2 T02271043
  • 210315Z AUTO 25009KT 10SM SCT120 24/M04 A2992 RMK AO2 T02401042
  • 210255Z AUTO 26010KT 10SM SCT120 25/M04 A2992 RMK AO2 T02471041
  • 210235Z AUTO 24015G18KT 10SM SCT120 26/M04 A2991 RMK AO2 T02551042
  • 210215Z AUTO 24010KT 10SM CLR 26/M05 A2990 RMK AO2 T02551046
  • 210155Z AUTO 24015KT 10SM CLR 27/M05 A2990 RMK AO2 T02651049
  • 210135Z AUTO 24014G22KT 10SM CLR 27/M05 A2989 RMK AO2 T02711048
  • 210115Z AUTO 24017G23KT 10SM CLR 28/M05 A2989 RMK AO2 T02791050
  • 210055Z AUTO 25017G25KT 10SM CLR 29/M05 A2989 RMK AO2 T02851053

TAF KLRU
Valid from the 21 at 00:00 until the 22 at 00:00 UTC


202326Z 2100/2124 25020G30KT P6SM FEW180
FM210400 26012KT P6SM SKC
FM211700 26015G25KT P6SM SKC
KZAB FIR / North America



MET'MAP, your aeronautical weather chart ! - Copyright ORBIFLY December 2007 - Disclaimer

ORBIFLY MET'MAP TEAM :

Programming & Development : Alexandra Zaïnal
Concept & Development : Baudouin d'Aumeries
Co-Development & Prog : Marc-Olivier Méhu
Technical & hardware support : Manuel Goepfert

Contact : metmap@orbifly.com




SOURCES & CREDITS :

   NOAA       Earth
Advisory